createdAt,value
2023-03-02T00:00:17.800Z,6.87
2023-03-02T00:01:17.773Z,6.98
2023-03-02T00:02:17.867Z,6.99
2023-03-02T00:03:17.752Z,6.92
2023-03-02T00:04:17.746Z,7.00
2023-03-02T00:05:17.725Z,6.88
2023-03-02T00:06:17.721Z,6.99
2023-03-02T00:07:17.691Z,6.95
2023-03-02T00:08:17.692Z,6.83
2023-03-02T00:09:17.677Z,6.85
2023-03-02T00:10:17.654Z,6.83
2023-03-02T00:11:17.668Z,6.88
2023-03-02T00:12:17.656Z,6.96
2023-03-02T00:13:17.624Z,6.96
2023-03-02T00:14:17.636Z,6.98
2023-03-02T00:15:17.601Z,6.87
2023-03-02T00:16:17.583Z,6.97
2023-03-02T00:17:17.529Z,6.88
2023-03-02T00:18:17.516Z,6.87
2023-03-02T00:19:17.527Z,6.69
2023-03-02T00:20:17.480Z,6.82
2023-03-02T00:21:17.495Z,6.78
2023-03-02T00:22:17.497Z,6.80
2023-03-02T00:23:17.466Z,6.81
2023-03-02T00:24:17.464Z,6.77
2023-03-02T00:25:17.463Z,6.77
2023-03-02T00:26:17.405Z,6.71
2023-03-02T00:27:17.412Z,6.80
2023-03-02T00:28:17.389Z,6.84
2023-03-02T00:29:17.383Z,6.80
2023-03-02T00:30:17.360Z,6.76
2023-03-02T00:31:17.372Z,6.77
2023-03-02T00:32:17.345Z,6.81
2023-03-02T00:33:17.327Z,6.87
2023-03-02T00:34:17.305Z,6.90
2023-03-02T00:35:17.295Z,6.91
2023-03-02T00:36:17.272Z,6.84
2023-03-02T00:37:17.267Z,6.87
2023-03-02T00:38:17.241Z,6.79
2023-03-02T00:39:17.203Z,6.74
2023-03-02T00:40:17.206Z,6.74
2023-03-02T00:41:17.177Z,6.57
2023-03-02T00:42:17.134Z,6.76
2023-03-02T00:43:17.113Z,6.60
2023-03-02T00:44:17.095Z,6.91
2023-03-02T00:45:17.088Z,6.59
2023-03-02T00:46:17.102Z,6.68
2023-03-02T00:47:17.070Z,6.72
2023-03-02T00:48:17.063Z,6.57
2023-03-02T00:49:17.029Z,6.69
2023-03-02T00:50:17.009Z,6.54
2023-03-02T00:51:16.987Z,6.59
2023-03-02T00:52:16.956Z,6.65
2023-03-02T00:53:16.964Z,6.70
2023-03-02T00:54:16.921Z,6.62
2023-03-02T00:55:16.887Z,6.69
2023-03-02T00:56:16.872Z,6.63
2023-03-02T00:57:16.796Z,6.60
2023-03-02T00:58:16.805Z,6.53
2023-03-02T00:59:16.772Z,6.53
2023-03-02T01:00:16.740Z,6.45
2023-03-02T01:01:18.691Z,6.62
2023-03-02T01:02:16.822Z,6.63
2023-03-02T01:03:16.745Z,6.71
2023-03-02T01:04:16.753Z,6.66
2023-03-02T01:05:16.724Z,6.55
2023-03-02T01:06:16.751Z,6.62
2023-03-02T01:07:16.775Z,6.45
2023-03-02T01:08:16.720Z,6.43
2023-03-02T01:09:16.771Z,6.57
2023-03-02T01:10:16.743Z,6.39
2023-03-02T01:11:16.751Z,6.56
2023-03-02T01:12:16.765Z,6.54
2023-03-02T01:13:16.805Z,6.59
2023-03-02T01:14:16.827Z,6.58
2023-03-02T01:15:16.763Z,6.53
2023-03-02T01:16:16.795Z,6.45
2023-03-02T01:17:16.803Z,6.56
2023-03-02T01:18:16.802Z,6.50
2023-03-02T01:19:16.834Z,6.49
2023-03-02T01:20:16.844Z,6.53
2023-03-02T01:21:16.878Z,6.42
2023-03-02T01:22:16.866Z,6.44
2023-03-02T01:23:16.825Z,6.36
2023-03-02T01:24:16.842Z,6.49
2023-03-02T01:25:16.857Z,6.36
2023-03-02T01:26:16.870Z,6.58
2023-03-02T01:27:16.857Z,6.46
2023-03-02T01:28:16.915Z,6.26
2023-03-02T01:29:16.858Z,6.32
2023-03-02T01:30:16.855Z,6.32
2023-03-02T01:31:16.933Z,6.31
2023-03-02T01:32:16.936Z,6.30
2023-03-02T01:33:16.871Z,6.20
2023-03-02T01:34:16.877Z,6.36
2023-03-02T01:35:16.852Z,6.31
2023-03-02T01:36:16.849Z,6.12
2023-03-02T01:37:16.863Z,6.24
2023-03-02T01:38:16.893Z,6.19
2023-03-02T01:39:16.860Z,6.29
2023-03-02T01:40:16.858Z,6.28
2023-03-02T01:41:16.841Z,6.33
2023-03-02T01:42:16.860Z,6.27
2023-03-02T01:43:16.868Z,6.11
2023-03-02T01:44:16.884Z,6.23
2023-03-02T01:45:16.873Z,6.14
2023-03-02T01:46:16.857Z,6.19
2023-03-02T01:47:16.862Z,6.17
2023-03-02T01:48:16.881Z,6.29
2023-03-02T01:49:16.899Z,6.04
2023-03-02T01:50:16.925Z,6.05
2023-03-02T01:51:16.884Z,6.02
2023-03-02T01:52:16.880Z,6.22
2023-03-02T01:53:16.880Z,6.12
2023-03-02T01:54:16.875Z,6.01
2023-03-02T01:55:16.889Z,6.16
2023-03-02T01:56:16.893Z,6.05
2023-03-02T01:57:16.870Z,5.99
2023-03-02T01:58:16.855Z,5.95
2023-03-02T01:59:16.868Z,5.93
2023-03-02T02:00:16.841Z,6.00
2023-03-02T02:01:16.850Z,5.99
2023-03-02T02:02:16.834Z,5.92
2023-03-02T02:03:16.834Z,5.79
2023-03-02T02:04:16.929Z,5.82
2023-03-02T02:05:16.866Z,5.84
2023-03-02T02:06:16.855Z,5.91
2023-03-02T02:07:16.873Z,5.73
2023-03-02T02:08:16.858Z,5.79
2023-03-02T02:17:16.914Z,5.64
2023-03-02T02:19:16.867Z,5.63
2023-03-02T02:20:16.866Z,5.60
2023-03-02T02:21:16.891Z,5.65
2023-03-02T02:22:16.860Z,5.57
2023-03-02T02:23:16.866Z,5.68
2023-03-02T02:24:16.863Z,5.57
2023-03-02T02:25:16.879Z,5.62
2023-03-02T02:26:16.839Z,5.46
2023-03-02T02:27:16.859Z,5.43
2023-03-02T02:28:16.852Z,5.50
2023-03-02T02:29:16.834Z,5.61
2023-03-02T02:30:16.828Z,5.55
2023-03-02T02:31:16.847Z,5.54
2023-03-02T02:32:16.933Z,5.43
2023-03-02T02:33:16.786Z,5.41
2023-03-02T02:34:16.789Z,5.41
2023-03-02T02:35:16.756Z,5.45
2023-03-02T02:36:16.778Z,5.49
2023-03-02T02:37:16.744Z,5.50
2023-03-02T02:38:16.725Z,5.48
2023-03-02T02:39:16.776Z,5.51
2023-03-02T02:40:16.755Z,5.52
2023-03-02T02:41:16.723Z,5.45
2023-03-02T02:42:16.677Z,5.57
2023-03-02T02:43:16.684Z,5.62
2023-03-02T02:44:16.671Z,5.35
2023-03-02T02:45:16.680Z,5.52
2023-03-02T02:46:16.757Z,5.33
2023-03-02T02:47:16.621Z,5.36
2023-03-02T02:48:16.617Z,5.41
2023-03-02T02:49:16.634Z,5.30
2023-03-02T02:50:16.596Z,5.35
2023-03-02T02:51:16.617Z,5.45
2023-03-02T02:52:16.572Z,5.42
2023-03-02T02:53:16.558Z,5.32
2023-03-02T02:54:16.544Z,5.33
2023-03-02T02:55:16.532Z,5.26
2023-03-02T02:56:16.505Z,5.33
2023-03-02T02:57:16.474Z,5.25
2023-03-02T02:58:16.488Z,5.31
2023-03-02T02:59:16.456Z,5.32
2023-03-02T03:00:16.471Z,5.28
2023-03-02T03:01:16.503Z,5.31
2023-03-02T03:02:16.408Z,5.23
2023-03-02T03:03:16.397Z,5.24
2023-03-02T03:04:16.420Z,5.04
2023-03-02T03:05:16.376Z,5.24
2023-03-02T03:06:16.337Z,5.11
2023-03-02T03:07:16.319Z,5.12
2023-03-02T03:08:16.328Z,5.16
2023-03-02T03:09:16.307Z,5.12
2023-03-02T03:10:16.281Z,5.17
2023-03-02T06:46:20.495Z,4.87
2023-03-02T10:34:11.510Z,8.83
2023-03-02T10:35:11.538Z,9.00
2023-03-02T10:36:11.526Z,8.98
2023-03-02T10:37:11.450Z,9.04
2023-03-02T10:38:11.449Z,9.29
2023-03-02T10:39:11.409Z,9.56
2023-03-02T10:40:11.382Z,9.87
2023-03-02T10:41:11.366Z,10.11
2023-03-02T10:42:11.437Z,10.45
2023-03-02T10:43:11.364Z,10.70
2023-03-02T10:44:11.370Z,11.29
2023-03-02T10:45:11.306Z,10.73
2023-03-02T10:46:11.319Z,9.90
2023-03-02T10:47:11.236Z,9.88
2023-03-02T10:48:11.230Z,10.14
2023-03-02T10:49:11.196Z,10.41
2023-03-02T10:50:11.176Z,10.50
2023-03-02T10:51:11.110Z,11.00
2023-03-02T10:52:11.456Z,10.98
2023-03-02T10:53:11.123Z,10.92
2023-03-02T10:54:11.064Z,10.59
2023-03-02T10:55:11.051Z,10.65
2023-03-02T10:56:11.044Z,10.44
2023-03-02T10:57:10.991Z,9.96
2023-03-02T10:58:11.456Z,9.91
2023-03-02T10:59:10.985Z,5.20
2023-03-02T11:00:10.955Z,2.80
2023-03-02T11:01:10.950Z,2.13
2023-03-02T11:02:10.966Z,2.49
2023-03-02T11:03:10.930Z,2.71
2023-03-02T11:04:10.998Z,3.35
2023-03-02T11:05:10.953Z,3.44
2023-03-02T11:06:10.911Z,3.98
2023-03-02T11:07:10.971Z,4.58
2023-03-02T11:08:10.919Z,4.10
2023-03-02T11:09:10.934Z,4.46
2023-03-02T11:10:10.924Z,4.65
2023-03-02T11:11:10.960Z,3.98
2023-03-02T11:12:10.959Z,1.60
2023-03-02T11:14:11.134Z,1.92
2023-03-02T11:16:10.913Z,2.83
2023-03-02T11:17:10.879Z,2.94
2023-03-02T12:58:09.034Z,5.12
2023-03-02T12:59:08.666Z,4.98
2023-03-02T13:00:08.682Z,5.09
2023-03-02T13:01:08.697Z,4.94
2023-03-02T13:02:08.593Z,4.91
2023-03-02T13:03:08.570Z,4.92
2023-03-02T13:04:08.515Z,4.93
2023-03-02T13:05:08.534Z,4.65
2023-03-02T13:06:08.514Z,4.83
2023-03-02T13:07:08.478Z,4.74
2023-03-02T13:08:08.464Z,4.63
2023-03-02T13:09:08.510Z,4.71
2023-03-02T13:10:08.523Z,4.60
2023-03-02T13:11:08.376Z,4.54
2023-03-02T13:12:08.338Z,4.55
2023-03-02T13:13:08.457Z,4.62
2023-03-02T13:14:08.333Z,4.63
2023-03-02T13:15:08.297Z,4.58
2023-03-02T13:16:08.340Z,4.52
2023-03-02T13:17:08.259Z,4.40
2023-03-02T13:18:08.238Z,4.36
2023-03-02T13:19:08.226Z,4.29
2023-03-02T13:20:08.184Z,4.33
2023-03-02T13:21:08.171Z,4.26
2023-03-02T13:22:08.172Z,4.19
2023-03-02T13:23:08.150Z,4.14
2023-03-02T13:24:08.150Z,4.20
2023-03-02T13:25:08.270Z,5.10
2023-03-02T13:26:08.093Z,4.80
2023-03-02T13:27:08.157Z,5.52
2023-03-02T13:28:08.033Z,5.59
2023-03-02T13:29:08.034Z,5.65
2023-03-02T13:30:07.952Z,5.53
2023-03-02T13:31:08.080Z,4.87
2023-03-02T13:32:07.931Z,4.89
2023-03-02T13:33:07.911Z,4.36
2023-03-02T13:34:07.894Z,4.39
2023-03-02T13:35:07.817Z,4.36
2023-03-02T13:36:07.788Z,4.29
2023-03-02T13:37:07.758Z,4.13
2023-03-02T13:38:07.843Z,4.30
2023-03-02T13:39:07.722Z,4.07
2023-03-02T13:40:07.669Z,4.04
2023-03-02T13:41:09.420Z,4.11
2023-03-02T13:42:07.623Z,4.14
2023-03-02T13:43:07.601Z,4.19
2023-03-02T13:44:07.567Z,4.22
2023-03-02T13:45:07.542Z,4.14
2023-03-02T13:46:07.586Z,4.27
2023-03-02T13:47:08.012Z,4.12
2023-03-02T13:48:07.498Z,4.12
2023-03-02T13:49:10.702Z,4.00
2023-03-02T13:50:07.443Z,4.17
2023-03-02T13:51:07.303Z,4.11
2023-03-02T13:52:08.375Z,4.01
2023-03-02T13:53:07.223Z,4.08
2023-03-02T13:54:07.167Z,3.94
2023-03-02T13:55:07.097Z,4.01
2023-03-02T13:56:07.052Z,3.94
2023-03-02T13:57:06.973Z,3.88
2023-03-02T13:58:06.952Z,4.03
2023-03-02T13:59:06.882Z,3.91
2023-03-02T14:00:06.832Z,3.73
2023-03-02T14:01:06.791Z,3.75
2023-03-02T14:02:06.746Z,3.84
2023-03-02T14:03:06.678Z,3.76
2023-03-02T14:04:06.636Z,3.71
2023-03-02T14:05:06.634Z,3.64
2023-03-02T14:06:06.514Z,3.65
2023-03-02T14:07:06.436Z,3.64
2023-03-02T14:08:06.377Z,3.68
2023-03-02T14:09:06.345Z,3.59
2023-03-02T14:10:06.284Z,3.55
2023-03-02T15:07:03.713Z,2.84
2023-03-02T15:08:03.665Z,2.84
2023-03-02T15:09:03.615Z,2.14
2023-03-02T15:11:03.614Z,2.21
2023-03-02T15:14:03.536Z,2.30
2023-03-02T15:15:03.552Z,2.34
2023-03-02T15:16:03.532Z,2.32
2023-03-02T15:17:03.460Z,2.32
2023-03-02T15:27:03.213Z,2.39
2023-03-02T15:28:03.160Z,2.37
2023-03-02T15:30:03.168Z,2.40
2023-03-02T15:31:03.160Z,2.34
2023-03-02T15:32:03.097Z,2.34
2023-03-02T15:33:03.058Z,2.30
2023-03-02T15:34:03.050Z,2.29
2023-03-02T15:35:03.036Z,2.34
2023-03-02T15:36:03.059Z,2.35
2023-03-02T15:37:02.973Z,2.29
2023-03-02T15:38:02.917Z,2.32
2023-03-02T15:39:02.893Z,2.34
2023-03-02T15:40:02.854Z,2.34
2023-03-02T15:45:02.776Z,2.21
2023-03-02T15:46:02.719Z,2.27
2023-03-02T15:47:02.836Z,2.21
2023-03-02T15:48:02.686Z,2.24
2023-03-02T15:49:02.632Z,2.15
2023-03-02T15:50:02.604Z,2.11
2023-03-02T15:51:02.589Z,2.11
2023-03-02T15:52:02.558Z,2.14
2023-03-02T15:53:02.569Z,2.11
2023-03-02T15:54:02.523Z,2.06
2023-03-02T15:56:02.436Z,2.08
2023-03-02T15:57:02.437Z,2.04
2023-03-02T15:58:02.425Z,2.04
2023-03-02T16:43:58.231Z,0.50
2023-03-02T16:44:58.168Z,0.50
2023-03-02T16:45:58.131Z,0.50
2023-03-02T16:46:58.064Z,0.50
2023-03-02T16:47:58.080Z,0.50
2023-03-02T16:48:58.071Z,0.50
2023-03-02T16:49:58.012Z,0.50
2023-03-02T16:50:58.036Z,0.52
2023-03-02T16:51:57.952Z,0.51
2023-03-02T16:52:57.986Z,0.50
2023-03-02T16:53:57.965Z,0.50
2023-03-02T16:54:57.999Z,0.52
2023-03-02T16:55:58.037Z,0.55
2023-03-02T16:56:58.010Z,0.52
2023-03-02T16:57:57.991Z,0.55
2023-03-02T16:58:59.985Z,0.51
2023-03-02T16:59:58.008Z,0.51
2023-03-02T17:00:58.077Z,0.51
2023-03-02T17:01:58.009Z,0.53
2023-03-02T17:02:58.037Z,0.51
2023-03-02T17:03:58.090Z,0.53
2023-03-02T17:04:58.075Z,0.55
2023-03-02T17:05:58.037Z,0.56
2023-03-02T17:07:00.802Z,0.57
2023-03-02T17:07:58.020Z,0.56
2023-03-02T17:08:58.040Z,0.55
2023-03-02T17:09:57.981Z,0.57
2023-03-02T17:10:57.978Z,0.56
2023-03-02T17:11:57.958Z,0.54
2023-03-02T17:12:57.910Z,0.53
2023-03-02T17:13:57.905Z,0.52
2023-03-02T17:14:57.880Z,0.52
2023-03-02T17:15:57.886Z,0.53
2023-03-02T17:16:57.867Z,0.53
2023-03-02T17:17:57.873Z,0.55
2023-03-02T17:18:57.837Z,0.58
2023-03-02T17:19:57.813Z,0.56
2023-03-02T17:20:57.798Z,0.54
2023-03-02T17:21:57.760Z,0.52
2023-03-02T17:22:57.720Z,0.53
2023-03-02T17:23:57.711Z,0.52
2023-03-02T17:24:57.711Z,0.54
2023-03-02T17:25:57.731Z,0.55
2023-03-02T17:26:57.689Z,0.53
2023-03-02T17:27:57.621Z,0.51
2023-03-02T17:28:57.628Z,0.53
2023-03-02T17:29:57.624Z,0.55
2023-03-02T17:30:57.618Z,0.54
2023-03-02T17:31:57.758Z,0.54
2023-03-02T17:32:57.874Z,0.55
2023-03-02T17:33:57.727Z,0.54
2023-03-02T17:34:57.493Z,0.55
2023-03-02T17:35:57.503Z,0.55
2023-03-02T17:36:57.451Z,0.55
2023-03-02T17:37:57.518Z,0.55
2023-03-02T17:38:57.441Z,0.54
2023-03-02T17:39:57.421Z,0.54
2023-03-02T17:40:57.381Z,0.55
2023-03-02T17:41:57.367Z,0.55
2023-03-02T17:42:57.909Z,0.58
2023-03-02T17:43:57.326Z,0.57
2023-03-02T17:44:57.298Z,0.56
2023-03-02T17:45:57.291Z,0.56
2023-03-02T17:46:57.248Z,0.57
2023-03-02T17:47:57.213Z,0.58
2023-03-02T17:48:57.197Z,0.58
2023-03-02T17:49:57.199Z,0.59
2023-03-02T17:50:57.178Z,0.58
2023-03-02T17:51:57.122Z,0.58
2023-03-02T17:52:57.141Z,0.57
2023-03-02T17:53:57.090Z,0.57
2023-03-02T17:54:57.077Z,0.58
2023-03-02T17:55:57.082Z,0.58
2023-03-02T17:56:57.057Z,0.58
2023-03-02T17:57:57.034Z,0.59
2023-03-02T17:58:56.982Z,0.58
2023-03-02T17:59:56.952Z,0.59
2023-03-02T18:00:56.934Z,0.58
2023-03-02T18:01:56.903Z,0.58
2023-03-02T18:02:56.934Z,0.57
2023-03-02T18:03:56.904Z,0.56
2023-03-02T18:04:56.863Z,0.57
2023-03-02T18:05:56.835Z,0.58
2023-03-02T18:06:56.817Z,0.58
2023-03-02T18:07:56.792Z,0.59
2023-03-02T18:08:56.781Z,0.59
2023-03-02T18:09:56.748Z,0.58
2023-03-02T18:10:56.726Z,0.57
2023-03-02T18:11:56.715Z,0.57
2023-03-02T18:12:56.658Z,0.58
2023-03-02T18:13:56.675Z,0.58
2023-03-02T18:14:56.615Z,0.57
2023-03-02T18:15:56.611Z,0.58
2023-03-02T18:16:56.581Z,0.58
2023-03-02T18:17:56.590Z,0.57
2023-03-02T18:18:56.542Z,0.58
2023-03-02T18:19:56.555Z,0.58
2023-03-02T18:20:56.542Z,0.58
2023-03-02T18:21:56.521Z,0.58
2023-03-02T18:22:56.461Z,0.58
2023-03-02T18:23:56.467Z,0.59
2023-03-02T18:24:56.472Z,0.60
2023-03-02T18:25:56.532Z,0.59
2023-03-02T18:26:56.527Z,0.60
2023-03-02T18:27:56.593Z,0.58
2023-03-02T18:28:56.554Z,0.60
2023-03-02T18:29:56.626Z,0.58
2023-03-02T18:30:56.641Z,0.58
2023-03-02T18:31:56.658Z,0.59
2023-03-02T18:32:56.642Z,0.60
2023-03-02T18:33:56.643Z,0.58
2023-03-02T18:34:56.652Z,0.60
2023-03-02T18:35:56.710Z,0.59
2023-03-02T18:36:56.755Z,0.60
2023-03-02T18:37:56.733Z,0.58
2023-03-02T18:38:56.721Z,0.59
2023-03-02T18:39:56.720Z,0.58
2023-03-02T18:40:56.732Z,0.59
2023-03-02T18:41:56.752Z,0.59
2023-03-02T18:42:56.800Z,0.58
2023-03-02T18:43:56.788Z,0.59
2023-03-02T18:44:56.823Z,0.57
2023-03-02T18:45:56.818Z,0.56
2023-03-02T18:46:56.893Z,0.56
2023-03-02T18:47:56.882Z,0.56
2023-03-02T18:48:56.887Z,0.57
2023-03-02T18:49:56.872Z,0.56
2023-03-02T18:50:56.964Z,0.57
2023-03-02T18:51:56.976Z,0.57
2023-03-02T18:52:56.917Z,0.58
2023-03-02T18:53:56.943Z,0.57
2023-03-02T18:54:56.992Z,0.58
2023-03-02T18:55:57.007Z,0.56
2023-03-02T18:56:57.009Z,0.59
2023-03-02T18:57:56.995Z,0.59
2023-03-02T18:58:57.013Z,0.60
2023-03-02T18:59:57.027Z,0.60
2023-03-02T19:00:57.101Z,0.62
2023-03-02T19:01:57.104Z,0.63
2023-03-02T19:02:57.124Z,0.62
2023-03-02T19:03:57.115Z,0.63
2023-03-02T19:04:57.126Z,0.65
2023-03-02T19:05:58.253Z,0.64
2023-03-02T19:06:57.161Z,0.68
2023-03-02T19:07:57.174Z,0.65
2023-03-02T19:08:57.197Z,0.66
2023-03-02T19:09:57.202Z,0.68
2023-03-02T19:13:15.985Z,0.50
2023-03-02T19:14:15.998Z,0.50
2023-03-02T19:15:16.005Z,0.50
2023-03-02T19:16:18.137Z,0.50
2023-03-02T19:17:15.953Z,0.50
2023-03-02T19:18:15.939Z,0.51
2023-03-02T19:19:15.973Z,0.51
2023-03-02T19:20:15.983Z,0.51
2023-03-02T19:21:16.009Z,0.51
2023-03-02T19:22:16.026Z,0.51
2023-03-02T19:23:16.027Z,0.52
2023-03-02T19:24:16.086Z,0.52
2023-03-02T19:25:16.117Z,0.51
2023-03-02T19:26:16.091Z,0.51
2023-03-02T19:27:16.156Z,0.53
2023-03-02T19:28:16.112Z,0.52
2023-03-02T19:29:16.136Z,0.51
2023-03-02T19:30:16.187Z,0.51
2023-03-02T19:31:16.201Z,0.51
2023-03-02T19:32:16.253Z,0.52
2023-03-02T19:33:16.233Z,0.52
2023-03-02T19:34:16.257Z,0.51
2023-03-02T19:35:16.245Z,0.52
2023-03-02T19:36:16.247Z,0.51
2023-03-02T19:37:16.279Z,0.52
2023-03-02T19:38:16.374Z,0.53
2023-03-02T19:39:16.316Z,0.53
2023-03-02T19:40:16.334Z,0.52
2023-03-02T19:41:16.400Z,0.53
2023-03-02T19:42:16.383Z,0.52
2023-03-02T19:43:16.439Z,0.52
2023-03-02T19:44:16.433Z,0.53
2023-03-02T19:45:16.444Z,0.51
2023-03-02T19:46:16.596Z,0.52
2023-03-02T19:47:16.500Z,0.52
2023-03-02T19:48:16.540Z,0.53
2023-03-02T19:49:16.526Z,0.51
2023-03-02T19:50:16.557Z,0.52
2023-03-02T19:51:16.594Z,0.52
2023-03-02T19:52:16.635Z,0.50
2023-03-02T19:53:16.628Z,0.51
2023-03-02T19:54:16.645Z,0.51
2023-03-02T19:55:16.698Z,0.52
2023-03-02T19:56:16.709Z,0.50
2023-03-02T19:57:16.733Z,0.52
2023-03-02T19:58:16.730Z,0.50
2023-03-02T19:59:16.765Z,0.51
2023-03-02T20:00:16.851Z,0.52
2023-03-02T20:01:16.879Z,0.50
2023-03-02T20:02:16.883Z,0.52
2023-03-02T20:03:16.875Z,0.52
2023-03-02T20:04:16.900Z,0.53
2023-03-02T20:05:16.938Z,0.51
2023-03-02T20:06:16.892Z,0.52
2023-03-02T20:07:16.933Z,0.52
2023-03-02T20:08:16.958Z,0.53
2023-03-02T20:09:16.973Z,0.52
2023-03-02T20:10:16.997Z,0.53
2023-03-02T20:11:17.041Z,0.52
2023-03-02T20:12:17.045Z,0.52
2023-03-02T20:13:17.133Z,0.51
2023-03-02T20:14:32.762Z,0.52
2023-03-02T20:15:18.125Z,0.52
2023-03-02T20:16:17.152Z,0.52
2023-03-02T20:17:17.089Z,0.52
2023-03-02T20:18:17.073Z,0.52
2023-03-02T20:19:17.056Z,0.51
2023-03-02T20:20:17.036Z,0.51
2023-03-02T20:21:17.022Z,0.51
2023-03-02T20:22:16.992Z,0.52
2023-03-02T20:23:16.999Z,0.51
2023-03-02T20:24:17.005Z,0.52
2023-03-02T20:25:16.964Z,0.51
2023-03-02T20:26:16.969Z,0.52
2023-03-02T20:27:16.969Z,0.52
2023-03-02T20:28:16.925Z,0.51
2023-03-02T20:29:16.937Z,0.51
2023-03-02T20:30:16.931Z,0.51
2023-03-02T20:31:16.921Z,0.51
2023-03-02T20:32:16.978Z,0.51
2023-03-02T20:33:16.925Z,0.51
2023-03-02T20:34:16.965Z,0.51
2023-03-02T20:35:16.954Z,0.52
2023-03-02T20:36:17.023Z,0.51
2023-03-02T20:37:16.994Z,0.51
2023-03-02T20:38:17.053Z,0.51
2023-03-02T20:39:17.017Z,0.52
2023-03-02T20:40:17.054Z,0.51
2023-03-02T20:41:17.095Z,0.51
2023-03-02T20:42:17.097Z,0.52
2023-03-02T21:14:17.875Z,0.51
2023-03-02T21:15:17.840Z,0.52
2023-03-02T21:16:17.897Z,0.51
2023-03-02T21:17:17.874Z,0.52
2023-03-02T21:18:17.888Z,0.53
2023-03-02T21:19:17.956Z,0.52
2023-03-02T21:20:18.331Z,0.52
2023-03-02T21:21:17.947Z,0.53
2023-03-02T21:22:17.998Z,0.51
2023-03-02T21:23:18.007Z,0.51
2023-03-02T21:24:18.077Z,0.52
2023-03-02T21:25:18.077Z,0.53
2023-03-02T21:26:18.061Z,0.52
2023-03-02T21:27:18.091Z,0.53
2023-03-02T21:28:18.134Z,0.51
2023-03-02T21:29:18.149Z,0.52
2023-03-02T21:30:18.178Z,0.52
2023-03-02T21:31:18.258Z,0.52
2023-03-02T21:32:18.319Z,0.53
2023-03-02T21:33:18.203Z,0.53
2023-03-02T21:34:18.258Z,0.52
2023-03-02T21:35:18.267Z,0.53
2023-03-02T21:36:18.307Z,0.53
2023-03-02T21:37:18.284Z,0.53
2023-03-02T21:38:18.331Z,0.53
2023-03-02T21:39:18.376Z,0.53
2023-03-02T21:40:18.387Z,0.51
2023-03-02T21:41:18.395Z,0.53
2023-03-02T21:42:18.416Z,0.53
2023-03-02T21:43:18.445Z,0.53
2023-03-02T21:44:18.489Z,0.53
2023-03-02T21:45:18.501Z,0.52
2023-03-02T21:46:18.513Z,0.53
2023-03-02T21:47:18.528Z,0.53
2023-03-02T21:48:18.581Z,0.54
2023-03-02T21:49:18.603Z,0.53
2023-03-02T21:50:18.632Z,0.52
2023-03-02T21:51:18.675Z,0.52
2023-03-02T21:52:18.678Z,0.52
2023-03-02T21:53:18.673Z,0.53
2023-03-02T21:54:18.718Z,0.53
2023-03-02T21:55:18.741Z,0.52
2023-03-02T21:56:18.775Z,0.53
2023-03-02T21:57:18.798Z,0.52
2023-03-02T21:58:18.818Z,0.53
2023-03-02T21:59:18.850Z,0.53
2023-03-02T22:00:18.867Z,0.53
2023-03-02T22:01:18.892Z,0.51
2023-03-02T22:02:18.894Z,0.53
2023-03-02T22:03:18.913Z,0.52
2023-03-02T22:04:18.945Z,0.52
2023-03-02T22:05:18.974Z,0.53
2023-03-02T22:06:18.974Z,0.53
2023-03-02T22:07:19.029Z,0.53
2023-03-02T22:08:19.042Z,0.52
2023-03-02T22:09:19.052Z,0.53
2023-03-02T22:10:19.083Z,0.53
2023-03-02T22:11:19.079Z,0.52
2023-03-02T22:12:19.089Z,0.52
2023-03-02T22:13:19.124Z,0.51
2023-03-02T22:14:19.141Z,0.53
2023-03-02T22:15:19.168Z,0.53
2023-03-02T22:16:19.264Z,0.51
2023-03-02T22:17:19.168Z,0.51
2023-03-02T22:18:19.207Z,0.52
2023-03-02T22:19:19.249Z,0.52
2023-03-02T22:20:19.266Z,0.51
2023-03-02T22:21:19.355Z,0.52
2023-03-02T22:22:19.310Z,0.52
2023-03-02T22:23:19.330Z,0.52
2023-03-02T22:24:19.346Z,0.52
2023-03-02T22:25:19.378Z,0.51
2023-03-02T22:26:19.418Z,0.52
2023-03-02T22:27:19.414Z,0.52
2023-03-02T22:28:19.423Z,0.52
2023-03-02T22:29:19.487Z,0.52
2023-03-02T22:30:19.482Z,0.51
2023-03-02T22:31:19.547Z,0.53
2023-03-02T22:32:19.614Z,0.52
2023-03-02T22:33:19.569Z,0.50
2023-03-02T22:34:20.731Z,0.52
2023-03-02T22:35:19.634Z,0.51
2023-03-02T22:36:19.629Z,0.52
2023-03-02T22:37:19.682Z,0.51
2023-03-02T22:38:19.710Z,0.51
2023-03-02T22:39:19.687Z,0.52
2023-03-02T22:40:19.712Z,0.52
2023-03-02T22:41:19.730Z,0.51
2023-03-02T22:42:19.734Z,0.52
2023-03-02T22:43:19.769Z,0.53
2023-03-02T22:44:19.824Z,0.52
2023-03-02T22:45:19.817Z,0.52
2023-03-02T22:46:19.854Z,0.51
2023-03-02T22:47:19.838Z,0.52
2023-03-02T22:48:19.894Z,0.53
2023-03-02T22:49:19.903Z,0.51
2023-03-02T22:50:19.886Z,0.51
2023-03-02T22:51:19.951Z,0.51
2023-03-02T22:52:19.943Z,0.52
2023-03-02T22:53:19.970Z,0.52
2023-03-02T22:54:19.982Z,0.51
2023-03-02T22:55:20.043Z,0.51
2023-03-02T22:56:21.143Z,0.51
2023-03-02T22:57:20.097Z,0.52
2023-03-02T22:58:20.095Z,0.51
2023-03-02T22:59:20.120Z,0.50
2023-03-02T23:00:20.144Z,0.52
2023-03-02T23:01:20.204Z,0.53
2023-03-02T23:02:20.195Z,0.51
2023-03-02T23:03:20.228Z,0.52
2023-03-02T23:04:20.358Z,0.52
2023-03-02T23:05:20.234Z,0.51
2023-03-02T23:06:20.279Z,0.53
2023-03-02T23:07:20.280Z,0.51
2023-03-02T23:08:20.323Z,0.52
2023-03-02T23:09:20.319Z,0.51
2023-03-02T23:10:20.337Z,0.51
2023-03-02T23:11:20.335Z,0.51
2023-03-02T23:12:20.394Z,0.52
2023-03-02T23:13:20.491Z,0.52
2023-03-02T23:14:20.429Z,0.51
2023-03-02T23:15:20.467Z,0.52
2023-03-02T23:16:20.491Z,0.52
2023-03-02T23:17:20.499Z,0.51
2023-03-02T23:18:20.493Z,0.51
2023-03-02T23:19:20.508Z,0.51
2023-03-02T23:20:20.537Z,0.52
2023-03-02T23:21:20.548Z,0.52
2023-03-02T23:22:20.614Z,0.51
2023-03-02T23:23:20.627Z,0.51
2023-03-02T23:24:20.634Z,0.50
2023-03-02T23:25:20.651Z,0.50
2023-03-02T23:26:20.676Z,0.51
2023-03-02T23:27:20.701Z,0.51
2023-03-02T23:28:20.738Z,0.53
2023-03-02T23:29:20.778Z,0.51
2023-03-02T23:30:21.117Z,0.52
2023-03-02T23:31:21.315Z,0.51
2023-03-02T23:32:20.898Z,0.51
2023-03-02T23:33:20.851Z,0.52
